Alges — CSPH — position and weather

sailwx.info

Track history (hours):
 
Tides and Currents Weather Stations Pressure Air Temp Water Temp Dewpoint Dewpoint Depression Visibility Wind Speed Wind Dir Waves Ship Positions

Alges

Last reported at 2014-Oct-31 14:04 UTC. Time now 2014-Nov-01 00:19 UTC.
Position N 38°41' W 009°09'.

Length 45 m; draft 24.8 m.

Type: Passenger vessel. MMSI: 263700008.

Date/timePositionNaut miles runAvg speedWind from/ knotsBaromVisibWave heightAir tempDewpointWater temp
2014-Oct-31 14:04N 38°41' W 009°09'0 0.0
2014-Oct-31 13:33N 38°41' W 009°09'0 0.0
2014-Oct-31 10:20N 38°41' W 009°09'0 0.0
2014-Oct-31 09:34N 38°41' W 009°09'6 6.5
2014-Oct-31 08:33N 38°42' W 009°00'0 0.1
2014-Oct-31 07:33N 38°42' W 009°01'0 0.3
2014-Oct-31 06:33N 38°42' W 009°00'0 0.0
2014-Oct-30 20:08N 38°42' W 009°00'6 9.7
2014-Oct-30 19:34N 38°42' W 009°08'0 0.0
2014-Oct-30 18:33N 38°42' W 009°08'0 0.1
2014-Oct-30 17:33N 38°42' W 009°07'0 0.4
2014-Oct-30 16:33N 38°42' W 009°08'0 0.3
2014-Oct-30 15:33N 38°42' W 009°08'6 5.6
2014-Oct-30 14:33N 38°42' W 009°00'1 0.6
2014-Oct-30 13:33N 38°42' W 009°01'5 5.1
2014-Oct-30 12:34N 38°42' W 009°07'5 5.4
2014-Oct-30 11:33N 38°42' W 009°00'0 0.5
2014-Oct-30 10:33N 38°42' W 009°01'0 0.3
2014-Oct-30 09:33N 38°42' W 009°01'0 0.1
2014-Oct-30 08:33N 38°42' W 009°00'0 0.1
2014-Oct-30 07:33N 38°42' W 009°01'0 0.3
2014-Oct-30 06:33N 38°42' W 009°00'0 0.0
2014-Oct-29 20:07N 38°42' W 009°00'5 9.8
2014-Oct-29 19:33N 38°42' W 009°07'0 0.3
2014-Oct-29 18:34N 38°42' W 009°08'0 0.2
2014-Oct-29 17:33N 38°42' W 009°07'0 0.3
2014-Oct-29 16:33N 38°42' W 009°08'0 0.4
2014-Oct-29 15:34N 38°42' W 009°08'6 5.6
2014-Oct-29 14:33N 38°42' W 009°00'1 0.6
2014-Oct-29 13:34N 38°42' W 009°01'5 5.3
2014-Oct-29 12:34N 38°42' W 009°08'6 5.7
2014-Oct-29 11:33N 38°42' W 009°00'0 0.2
2014-Oct-29 10:33N 38°42' W 009°01'0 0.2
2014-Oct-29 09:33N 38°42' W 009°00'7 6.7
2014-Oct-29 08:34N 38°41' W 009°09'0 0.0
2014-Oct-29 07:34N 38°41' W 009°09'0 0.0
2014-Oct-29 06:33N 38°41' W 009°09'0 0.0
2014-Oct-27 14:34N 38°41' W 009°09'0 0.0
2014-Oct-27 13:33N 38°41' W 009°09'0 0.0
2014-Oct-27 08:27N 38°41' W 009°09'1 1.6
2014-Oct-27 07:34N 38°40' W 009°07'2 2.4
2014-Oct-27 06:34N 38°42' W 009°09'  
2014-Oct-24 14:33N 38°41' W 009°09'0 0.0
2014-Oct-24 09:33N 38°41' W 009°09'0 0.0
2014-Oct-24 08:33N 38°41' W 009°09'0 0.0
2014-Oct-24 07:17N 38°41' W 009°09'7 8.9
2014-Oct-24 06:33N 38°42' W 009°00'6 0.5
2014-Oct-23 18:33N 38°42' W 009°08'0 0.1
2014-Oct-23 17:33N 38°42' W 009°08'0 0.2
2014-Oct-23 16:34N 38°42' W 009°08'0 0.1
2014-Oct-23 15:33N 38°42' W 009°08'0 0.0
2014-Oct-23 14:33N 38°42' W 009°08'6 5.9
2014-Oct-23 13:33N 38°42' W 009°00'0 0.2
2014-Oct-23 12:33N 38°42' W 009°01'5 5.4
2014-Oct-23 11:34N 38°42' W 009°08'6 5.5
2014-Oct-23 10:33N 38°42' W 009°00'7 6.6
2014-Oct-23 09:33N 38°41' W 009°09'1 1.1
2014-Oct-23 08:34N 38°42' W 009°08'0 0.2
2014-Oct-23 07:33N 38°42' W 009°08'0 0.3
2014-Oct-23 06:34N 38°42' W 009°08'0 0.3
2014-Oct-23 05:33N 38°42' W 009°08'6 5.9
2014-Oct-23 04:33N 38°42' W 009°00'1 0.2
2014-Oct-22 22:34N 38°41' W 009°02'1 0.8
2014-Oct-22 21:33N 38°42' W 009°01'0 0.1
2014-Oct-22 20:33N 38°42' W 009°01'0 0.2
2014-Oct-22 19:34N 38°42' W 009°01'0 0.2
2014-Oct-22 18:34N 38°42' W 009°01'0 0.1
2014-Oct-22 17:33N 38°42' W 009°01'0 0.1
2014-Oct-22 16:33N 38°42' W 009°01'0 0.2
2014-Oct-22 15:33N 38°42' W 009°01'5 0.8
2014-Oct-22 09:33N 38°42' W 009°07'1 1.1
2014-Oct-22 08:33N 38°42' W 009°08'0 0.3
2014-Oct-22 07:32N 38°42' W 009°08'0 0.0
2014-Oct-22 06:33N 38°42' W 009°08'0 0.2
2014-Oct-22 05:33N 38°42' W 009°08'6 5.8
2014-Oct-22 04:34N 38°42' W 009°00'1 0.2
2014-Oct-21 22:33N 38°41' W 009°01'1 0.5
2014-Oct-21 21:33N 38°42' W 009°01'0 0.1
2014-Oct-21 20:33N 38°42' W 009°01'0 0.2
2014-Oct-21 19:33N 38°42' W 009°01'0 0.4
2014-Oct-21 18:33N 38°42' W 009°01'0 0.1
2014-Oct-21 17:32N 38°42' W 009°00'0 0.1
2014-Oct-21 16:33N 38°42' W 009°00'0 0.4
2014-Oct-21 15:33N 38°42' W 009°01'  
Track history (hours):
 
Tides and Currents Weather Stations Pressure Air Temp Water Temp Dewpoint Dewpoint Depression Visibility Wind Speed Wind Dir Waves Ship Positions

Alges

Last reported at 2014-Oct-31 14:04 UTC. Time now 2014-Nov-01 00:19 UTC.
Position N 38°41' W 009°09'.

Length 45 m; draft 24.8 m.

Type: Passenger vessel. MMSI: 263700008.

Date/timePositionNaut miles runAvg speedWind from/ knotsBaromVisibWave heightAir tempDewpointWater temp
2014-Oct-31 14:04N 38°41' W 009°09'0 0.0
2014-Oct-31 13:33N 38°41' W 009°09'0 0.0
2014-Oct-31 10:20N 38°41' W 009°09'0 0.0
2014-Oct-31 09:34N 38°41' W 009°09'6 6.5
2014-Oct-31 08:33N 38°42' W 009°00'0 0.1
2014-Oct-31 07:33N 38°42' W 009°01'0 0.3
2014-Oct-31 06:33N 38°42' W 009°00'0 0.0
2014-Oct-30 20:08N 38°42' W 009°00'6 9.7
2014-Oct-30 19:34N 38°42' W 009°08'0 0.0
2014-Oct-30 18:33N 38°42' W 009°08'0 0.1
2014-Oct-30 17:33N 38°42' W 009°07'0 0.4
2014-Oct-30 16:33N 38°42' W 009°08'0 0.3
2014-Oct-30 15:33N 38°42' W 009°08'6 5.6
2014-Oct-30 14:33N 38°42' W 009°00'1 0.6
2014-Oct-30 13:33N 38°42' W 009°01'5 5.1
2014-Oct-30 12:34N 38°42' W 009°07'5 5.4
2014-Oct-30 11:33N 38°42' W 009°00'0 0.5
2014-Oct-30 10:33N 38°42' W 009°01'0 0.3
2014-Oct-30 09:33N 38°42' W 009°01'0 0.1
2014-Oct-30 08:33N 38°42' W 009°00'0 0.1
2014-Oct-30 07:33N 38°42' W 009°01'0 0.3
2014-Oct-30 06:33N 38°42' W 009°00'0 0.0
2014-Oct-29 20:07N 38°42' W 009°00'5 9.8
2014-Oct-29 19:33N 38°42' W 009°07'0 0.3
2014-Oct-29 18:34N 38°42' W 009°08'0 0.2
2014-Oct-29 17:33N 38°42' W 009°07'0 0.3
2014-Oct-29 16:33N 38°42' W 009°08'0 0.4
2014-Oct-29 15:34N 38°42' W 009°08'6 5.6
2014-Oct-29 14:33N 38°42' W 009°00'1 0.6
2014-Oct-29 13:34N 38°42' W 009°01'5 5.3
2014-Oct-29 12:34N 38°42' W 009°08'6 5.7
2014-Oct-29 11:33N 38°42' W 009°00'0 0.2
2014-Oct-29 10:33N 38°42' W 009°01'0 0.2
2014-Oct-29 09:33N 38°42' W 009°00'7 6.7
2014-Oct-29 08:34N 38°41' W 009°09'0 0.0
2014-Oct-29 07:34N 38°41' W 009°09'0 0.0
2014-Oct-29 06:33N 38°41' W 009°09'0 0.0
2014-Oct-27 14:34N 38°41' W 009°09'0 0.0
2014-Oct-27 13:33N 38°41' W 009°09'0 0.0
2014-Oct-27 08:27N 38°41' W 009°09'1 1.6
2014-Oct-27 07:34N 38°40' W 009°07'2 2.4
2014-Oct-27 06:34N 38°42' W 009°09'  
2014-Oct-24 14:33N 38°41' W 009°09'0 0.0
2014-Oct-24 09:33N 38°41' W 009°09'0 0.0
2014-Oct-24 08:33N 38°41' W 009°09'0 0.0
2014-Oct-24 07:17N 38°41' W 009°09'7 8.9
2014-Oct-24 06:33N 38°42' W 009°00'6 0.5
2014-Oct-23 18:33N 38°42' W 009°08'0 0.1
2014-Oct-23 17:33N 38°42' W 009°08'0 0.2
2014-Oct-23 16:34N 38°42' W 009°08'0 0.1
2014-Oct-23 15:33N 38°42' W 009°08'0 0.0
2014-Oct-23 14:33N 38°42' W 009°08'6 5.9
2014-Oct-23 13:33N 38°42' W 009°00'0 0.2
2014-Oct-23 12:33N 38°42' W 009°01'5 5.4
2014-Oct-23 11:34N 38°42' W 009°08'6 5.5
2014-Oct-23 10:33N 38°42' W 009°00'7 6.6
2014-Oct-23 09:33N 38°41' W 009°09'1 1.1
2014-Oct-23 08:34N 38°42' W 009°08'0 0.2
2014-Oct-23 07:33N 38°42' W 009°08'0 0.3
2014-Oct-23 06:34N 38°42' W 009°08'0 0.3
2014-Oct-23 05:33N 38°42' W 009°08'6 5.9
2014-Oct-23 04:33N 38°42' W 009°00'1 0.2
2014-Oct-22 22:34N 38°41' W 009°02'1 0.8
2014-Oct-22 21:33N 38°42' W 009°01'0 0.1
2014-Oct-22 20:33N 38°42' W 009°01'0 0.2
2014-Oct-22 19:34N 38°42' W 009°01'0 0.2
2014-Oct-22 18:34N 38°42' W 009°01'0 0.1
2014-Oct-22 17:33N 38°42' W 009°01'0 0.1
2014-Oct-22 16:33N 38°42' W 009°01'0 0.2
2014-Oct-22 15:33N 38°42' W 009°01'5 0.8
2014-Oct-22 09:33N 38°42' W 009°07'1 1.1
2014-Oct-22 08:33N 38°42' W 009°08'0 0.3
2014-Oct-22 07:32N 38°42' W 009°08'0 0.0
2014-Oct-22 06:33N 38°42' W 009°08'0 0.2
2014-Oct-22 05:33N 38°42' W 009°08'6 5.8
2014-Oct-22 04:34N 38°42' W 009°00'1 0.2
2014-Oct-21 22:33N 38°41' W 009°01'1 0.5
2014-Oct-21 21:33N 38°42' W 009°01'0 0.1
2014-Oct-21 20:33N 38°42' W 009°01'0 0.2
2014-Oct-21 19:33N 38°42' W 009°01'0 0.4
2014-Oct-21 18:33N 38°42' W 009°01'0 0.1
2014-Oct-21 17:32N 38°42' W 009°00'0 0.1
2014-Oct-21 16:33N 38°42' W 009°00'0 0.4
2014-Oct-21 15:33N 38°42' W 009°01'  

Dump ship's entire track history